createdAt,value
2019-04-04T00:01:47.818Z,13.80
2019-04-04T00:06:51.360Z,19.07
2019-04-04T00:11:55.904Z,19.07
2019-04-04T00:17:00.541Z,17.83
2019-04-04T00:22:05.582Z,17.17
2019-04-04T00:27:11.205Z,18.47
2019-04-04T00:32:16.542Z,20.03
2019-04-04T00:37:21.004Z,19.03
2019-04-04T00:42:25.461Z,21.47
2019-04-04T00:47:32.323Z,20.77
2019-04-04T00:52:36.506Z,18.90
2019-04-04T00:57:41.408Z,15.87
2019-04-04T01:02:45.895Z,15.80
2019-04-04T01:07:50.352Z,16.07
2019-04-04T01:12:55.031Z,18.93
2019-04-04T01:17:59.715Z,20.63
2019-04-04T01:23:04.404Z,17.43
2019-04-04T01:28:09.139Z,19.37
2019-04-04T01:33:14.041Z,19.53
2019-04-04T01:38:20.021Z,11.77
2019-04-04T01:43:24.645Z,17.23
2019-04-04T01:48:29.271Z,21.03
2019-04-04T01:53:33.987Z,17.47
2019-04-04T01:58:41.003Z,16.33
2019-04-04T02:03:45.193Z,15.90
2019-04-04T02:08:49.898Z,17.03
2019-04-04T02:13:54.475Z,16.53
2019-04-04T02:19:00.320Z,14.33
2019-04-04T02:24:04.943Z,19.67
2019-04-04T02:29:11.075Z,18.17
2019-04-04T02:34:16.099Z,10.20
2019-04-04T02:39:22.105Z,11.57
2019-04-04T02:44:26.917Z,11.27
2019-04-04T02:49:31.534Z,18.20
2019-04-04T02:54:36.370Z,17.17
2019-04-04T02:59:40.925Z,19.77
2019-04-04T03:04:46.814Z,16.10
2019-04-04T03:09:51.981Z,14.77
2019-04-04T03:14:56.608Z,17.40
2019-04-04T03:20:01.583Z,13.40
2019-04-04T03:25:06.318Z,9.67
2019-04-04T03:30:14.392Z,8.47
2019-04-04T03:35:25.889Z,9.53
2019-04-04T03:40:25.663Z,11.10
2019-04-04T03:45:30.597Z,14.70
2019-04-04T03:50:35.568Z,8.40
2019-04-04T03:55:40.089Z,15.30
2019-04-04T04:00:44.820Z,16.67
2019-04-04T04:05:49.662Z,17.17
2019-04-04T04:10:54.299Z,10.83
2019-04-04T04:16:02.463Z,9.83
2019-04-04T04:21:09.858Z,17.07
2019-04-04T04:26:11.720Z,11.90
2019-04-04T04:31:16.413Z,8.97
2019-04-04T04:36:21.058Z,6.93
2019-04-04T04:41:25.599Z,9.70
2019-04-04T04:46:30.688Z,14.90
2019-04-04T04:51:35.871Z,12.33
2019-04-04T04:56:40.697Z,13.53
2019-04-04T05:01:45.284Z,7.47
2019-04-04T05:06:50.799Z,7.27
2019-04-04T05:11:55.647Z,16.80
2019-04-04T05:17:00.274Z,8.13
2019-04-04T05:22:05.138Z,10.30
2019-04-04T05:27:09.806Z,12.87
2019-04-04T05:32:14.414Z,15.70
2019-04-04T05:37:18.968Z,17.07
2019-04-04T05:42:23.953Z,10.03
2019-04-04T05:47:28.383Z,12.63
2019-04-04T05:52:33.187Z,10.03
2019-04-04T05:57:37.887Z,18.83
2019-04-04T06:02:43.187Z,14.40
2019-04-04T06:07:48.610Z,10.50
2019-04-04T06:12:54.369Z,18.63
2019-04-04T06:17:59.667Z,18.23
2019-04-04T06:23:04.538Z,11.38
2019-04-04T06:28:11.627Z,16.07
2019-04-04T06:33:15.566Z,10.20
2019-04-04T06:38:23.089Z,13.10
2019-04-04T06:43:27.635Z,11.63
2019-04-04T06:48:33.844Z,16.93
2019-04-04T06:53:39.733Z,18.50
2019-04-04T06:58:44.447Z,10.33
2019-04-04T07:03:52.583Z,8.83
2019-04-04T07:08:57.471Z,13.07
2019-04-04T07:14:02.075Z,12.87
2019-04-04T07:19:08.127Z,9.90
2019-04-04T07:24:12.966Z,14.30
2019-04-04T07:29:17.709Z,7.17
2019-04-04T07:34:22.313Z,13.80
2019-04-04T07:39:26.919Z,14.20
2019-04-04T07:44:31.525Z,7.97
2019-04-04T07:49:40.070Z,9.90
2019-04-04T07:54:45.266Z,11.63
2019-04-04T07:59:52.278Z,5.90
2019-04-04T08:04:56.918Z,6.43
2019-04-04T08:10:01.808Z,6.90
2019-04-04T08:15:06.904Z,6.70
2019-04-04T08:20:11.665Z,5.17
2019-04-04T08:25:18.632Z,6.23
2019-04-04T08:30:23.348Z,9.57
2019-04-04T08:35:43.158Z,10.17
2019-04-04T08:40:47.700Z,6.77
2019-04-04T08:45:54.947Z,5.30
2019-04-04T08:50:59.682Z,6.20
2019-04-04T08:56:04.416Z,8.00
2019-04-04T09:01:08.987Z,6.57
2019-04-04T09:06:13.607Z,5.93
2019-04-04T09:11:18.288Z,10.20
2019-04-04T09:16:23.150Z,10.00
2019-04-04T09:21:27.761Z,7.10
2019-04-04T09:26:35.820Z,10.10
2019-04-04T09:31:40.567Z,7.83
2019-04-04T09:36:45.235Z,8.73
2019-04-04T09:41:53.115Z,9.53
2019-04-04T09:47:05.234Z,8.57
2019-04-04T09:52:04.298Z,7.57
2019-04-04T09:57:08.957Z,10.63
2019-04-04T10:02:13.744Z,9.80
2019-04-04T10:07:18.602Z,11.27
2019-04-04T10:12:23.314Z,10.00
2019-04-04T10:17:31.668Z,12.27
2019-04-04T10:22:36.440Z,14.63
2019-04-04T10:27:42.828Z,10.03
2019-04-04T10:32:47.742Z,12.43
2019-04-04T10:37:52.359Z,8.80
2019-04-04T10:42:57.265Z,10.23
2019-04-04T10:48:01.965Z,8.90
2019-04-04T10:53:06.649Z,18.93
2019-04-04T10:58:11.178Z,11.87
2019-04-04T11:03:16.927Z,11.03
2019-04-04T11:08:21.526Z,17.00
2019-04-04T11:13:33.386Z,13.03
2019-04-04T11:18:36.400Z,10.80
2019-04-04T11:23:40.980Z,11.30
2019-04-04T11:28:53.350Z,11.83
2019-04-04T11:33:58.597Z,12.47
2019-04-04T11:39:27.590Z,12.63
2019-04-04T11:44:34.587Z,13.07
2019-04-04T11:50:39.901Z,11.40
2019-04-04T11:55:56.284Z,13.53
2019-04-04T12:01:04.517Z,9.40
2019-04-04T12:06:10.280Z,8.87
2019-04-04T12:11:15.485Z,16.73
2019-04-04T12:16:22.007Z,9.50
2019-04-04T12:21:46.216Z,8.63
2019-04-04T12:26:51.640Z,10.43
2019-04-04T12:31:56.535Z,16.33
2019-04-04T12:37:01.479Z,14.93
2019-04-04T12:42:06.411Z,19.20
2019-04-04T12:47:11.488Z,16.13
2019-04-04T12:52:16.265Z,23.00
2019-04-04T12:57:21.277Z,10.30
2019-04-04T13:02:25.922Z,12.53
2019-04-04T13:07:30.535Z,11.93
2019-04-04T13:12:35.123Z,14.03
2019-04-04T13:17:39.859Z,17.43
2019-04-04T13:22:44.385Z,13.73
2019-04-04T13:27:49.246Z,11.83
2019-04-04T13:32:53.735Z,11.07
2019-04-04T13:37:58.238Z,11.53
2019-04-04T13:43:02.936Z,13.40
2019-04-04T13:48:07.799Z,10.83
2019-04-04T13:53:12.414Z,9.87
2019-04-04T13:58:17.632Z,18.53
2019-04-04T14:03:23.315Z,13.37
2019-04-04T14:08:28.151Z,9.20
2019-04-04T14:13:32.894Z,10.03
2019-04-04T14:18:39.963Z,15.40
2019-04-04T14:23:45.396Z,15.63
2019-04-04T14:28:50.342Z,11.03
2019-04-04T14:33:55.843Z,14.13
2019-04-04T14:45:52.565Z,12.07
2019-04-04T14:51:43.562Z,9.50
2019-04-04T14:56:48.238Z,10.63
2019-04-04T15:01:52.916Z,10.97
2019-04-04T15:06:57.612Z,14.77
2019-04-04T15:12:20.647Z,9.03
2019-04-04T15:17:25.152Z,10.40
2019-04-04T15:22:48.694Z,9.13
2019-04-04T15:28:12.247Z,8.97
2019-04-04T15:33:16.737Z,8.33
2019-04-04T15:38:41.032Z,5.77
2019-04-04T15:43:45.570Z,6.43
2019-04-04T15:48:50.280Z,5.57
2019-04-04T15:53:54.945Z,5.20
2019-04-04T15:58:59.635Z,6.63
2019-04-04T16:04:04.325Z,5.23
2019-04-04T16:09:09.286Z,6.00
2019-04-04T16:14:13.987Z,5.57
2019-04-04T16:19:18.607Z,8.13
2019-04-04T16:24:23.255Z,8.43
2019-04-04T16:29:27.923Z,5.60
2019-04-04T16:34:32.875Z,5.20
2019-04-04T16:39:38.571Z,5.03
2019-04-04T16:44:55.563Z,5.87
2019-04-04T16:50:00.542Z,6.93
2019-04-04T16:55:27.675Z,5.70
2019-04-04T17:00:34.049Z,6.17
2019-04-04T17:05:53.762Z,4.33
2019-04-04T17:24:56.889Z,3.93
2019-04-04T17:30:06.672Z,3.03
2019-04-04T17:36:01.860Z,4.37
2019-04-04T17:54:59.588Z,5.23
2019-04-04T18:00:10.774Z,3.20
2019-04-04T18:05:37.580Z,3.27
2019-04-04T18:10:50.736Z,4.03
2019-04-04T18:22:13.100Z,4.30
2019-04-04T18:27:21.039Z,3.83
2019-04-04T18:45:24.593Z,5.50
2019-04-04T18:50:31.028Z,10.30
2019-04-04T18:55:35.700Z,10.13
2019-04-04T19:00:41.548Z,9.27
2019-04-04T19:05:46.245Z,5.83
2019-04-04T19:10:51.061Z,4.93
2019-04-04T19:15:55.831Z,5.23
2019-04-04T19:21:00.999Z,4.60
2019-04-04T19:26:05.842Z,5.07
2019-04-04T19:31:11.520Z,6.60
2019-04-04T19:36:16.251Z,4.23
2019-04-04T19:41:20.976Z,4.27
2019-04-04T19:46:36.638Z,5.93
2019-04-04T19:51:34.233Z,10.23
2019-04-04T19:56:57.809Z,11.47
2019-04-04T20:02:02.571Z,8.53
2019-04-04T20:07:07.203Z,6.93
2019-04-04T20:12:11.739Z,7.07
2019-04-04T20:17:19.753Z,5.50
2019-04-04T20:22:24.295Z,5.10
2019-04-04T20:27:28.875Z,4.60
2019-04-04T20:32:33.534Z,4.73
2019-04-04T20:37:38.205Z,6.27
2019-04-04T20:42:42.862Z,6.20
2019-04-04T20:47:47.444Z,8.20
2019-04-04T20:52:52.047Z,7.77
2019-04-04T20:58:18.137Z,4.40
2019-04-04T21:03:22.854Z,5.57
2019-04-04T21:08:46.307Z,4.70
2019-04-04T21:13:56.421Z,4.97
2019-04-04T21:18:57.761Z,6.43
2019-04-04T21:24:11.595Z,4.80
2019-04-04T21:29:16.219Z,5.40
2019-04-04T21:34:20.813Z,6.03
2019-04-04T21:39:25.435Z,3.80
2019-04-04T21:44:30.240Z,5.47
2019-04-04T21:49:34.760Z,3.60
2019-04-04T21:54:39.330Z,5.97
2019-04-04T21:59:43.996Z,4.93
2019-04-04T22:04:48.547Z,6.97
2019-04-04T22:09:53.299Z,7.23
2019-04-04T22:14:58.217Z,4.97
2019-04-04T22:20:02.814Z,4.70
2019-04-04T22:25:07.532Z,5.63
2019-04-04T22:30:14.191Z,4.87
2019-04-04T22:35:18.826Z,4.60
2019-04-04T22:40:25.879Z,4.90
2019-04-04T22:45:30.463Z,5.70
2019-04-04T22:50:35.642Z,4.60
2019-04-04T22:55:40.218Z,5.20
2019-04-04T23:00:45.348Z,4.40
2019-04-04T23:05:49.971Z,4.80
2019-04-04T23:10:55.328Z,4.90
2019-04-04T23:16:01.743Z,3.30
2019-04-04T23:21:06.930Z,6.10
2019-04-04T23:26:11.961Z,6.07
2019-04-04T23:31:16.504Z,6.50
2019-04-04T23:36:34.123Z,7.97
2019-04-04T23:41:27.698Z,6.27
2019-04-04T23:46:32.588Z,6.67
2019-04-04T23:51:37.269Z,8.10
2019-04-04T23:56:41.823Z,8.90
